Impacts TAF Board
For situational awareness. Not to be used for flight planning purposes.
IDs:

KMSY - New Orleans/Armstron, LA, US

Issued at 1728 UTC 06 Jul 2020
Updated at 1810 UTC 06 Jul 2020
Potential Impact None Slight Moderate High
Time1753Z 06/19Z 06/20Z 06/21Z 06/22Z 06/23Z 07/00Z 07/01Z 07/02Z 07/03Z 07/04Z 07/05Z 07/06Z 07/07Z>>
Type OBS PRVL PRVL PRVL PRVL
  [TEMP]  
PRVL PRVL PRVL PRVL PRVL PRVL PRVL PRVL PRVL
VIS 9 >6 >6 >6 >6
  [4]  
>6 >6 >6 >6 >6 >6 >6 >6 >6
CIG 120 100 100 100 50
  [30]  
50 50 30 30 30 30 30 30 30
Cover OVC BKN BKN BKN OVC
  [BKN]  
OVC OVC BKN BKN BKN BKN BKN BKN BKN
FltCat VFR VFR VFR VFR VFR
  [MVFR]  
VFR VFR MVFR MVFR MVFR MVFR MVFR MVFR MVFR
WX -RA -- -- -- -SHRA
  [TSRA BR]  
-SHRA -SHRA VCTS VCTS VCTS VCTS VCTS VCTS VCTS
WDir 240 VRB VRB VRB 240
[240]
240 240 VRB VRB VRB VRB VRB VRB VRB
WSpd 3 4 4 4 5
  [5]  
5 5 0 0 0 0 0 0 0
WGst -- -- -- -- --
  [--]  
-- -- -- -- -- -- -- -- --
R01/19
XWnd 2 VRB VRB VRB 4 4 4 VRB VRB VRB VRB VRB VRB VRB
XGst -- -- -- -- 0 -- -- -- -- -- -- -- -- --
HWnd -2 VRB VRB VRB -4 -4 -4 VRB VRB VRB VRB VRB VRB VRB
HGst -- -- -- -- 0 -- -- -- -- -- -- -- -- --
R10/28
XWnd -2 VRB VRB VRB -4 -4 -4 VRB VRB VRB VRB VRB VRB VRB
XGst -- -- -- -- 0 -- -- -- -- -- -- -- -- --
HWnd -2 VRB VRB VRB -4 -4 -4 VRB VRB VRB VRB VRB VRB VRB
HGst -- -- -- -- 0 -- -- -- -- -- -- -- -- --
Raw TAF
KMSY 061728Z 0618/0724 VRB04KT P6SM FEW010 BKN100
  TEMPO 0618/0619 6SM -SHRA FEW010 BKN100
  FM062200 24005KT P6SM -SHRA SCT030 OVC050
  TEMPO 0622/0623 4SM TSRA BR BKN030CB
  FM070100 00000KT P6SM VCTS BKN030CB
  FM071300 VRB03KT P6SM -SHRA VCTS BKN035CB


Raw METAR
KMSY 061753Z 24003KT 9SM -RA FEW007 SCT095 OVC120 26/23 A2998 RMK AO2 SLP154 P0008 60141 T02610233 10283 20256 58000 $
KMSY 061741Z 25003KT 8SM -RA FEW007 BKN095 OVC120 26/23 A2998 RMK AO2 P0007 T02560233 $
KMSY 061653Z 24003KT 3SM +RA BR FEW007 BKN095 OVC120 26/23 A2999 RMK AO2 SLP158 P0021 T02560233 $
KMSY 061553Z 23006KT 3SM +RA BR FEW007 BKN065 OVC110 26/23 A2999 RMK AO2 SLP158 P0014 T02560233 $

METAR Board
Radar Display
Forecast Discussion
For situational awareness. Not to be used for flight planning purposes.